createdAt,value
2022-12-07T00:00:49.560Z,-0.44
2022-12-07T00:01:50.510Z,-0.44
2022-12-07T00:02:51.342Z,-0.46
2022-12-07T00:03:52.341Z,-0.46
2022-12-07T00:04:53.196Z,-0.46
2022-12-07T00:05:54.079Z,-0.43
2022-12-07T00:06:54.962Z,-0.44
2022-12-07T00:07:55.926Z,-0.46
2022-12-07T00:08:56.757Z,-0.46
2022-12-07T00:09:57.641Z,-0.46
2022-12-07T00:10:58.524Z,-0.46
2022-12-07T00:11:59.405Z,-0.47
2022-12-07T00:13:00.319Z,-0.46
2022-12-07T00:14:01.251Z,-0.47
2022-12-07T00:15:02.078Z,-0.47
2022-12-07T00:16:03.097Z,-0.46
2022-12-07T00:17:03.533Z,-0.49
2022-12-07T00:18:04.392Z,-0.47
2022-12-07T00:19:05.276Z,-0.46
2022-12-07T00:20:06.193Z,-0.44
2022-12-07T00:21:07.050Z,-0.47
2022-12-07T00:22:07.927Z,-0.46
2022-12-07T00:23:08.814Z,-0.47
2022-12-07T00:24:09.696Z,-0.44
2022-12-07T00:25:10.594Z,-0.46
2022-12-07T00:26:11.509Z,-0.47
2022-12-07T00:27:12.365Z,-0.49
2022-12-07T00:28:13.276Z,-0.49
2022-12-07T00:29:14.133Z,-0.47
2022-12-07T00:30:15.014Z,-0.51
2022-12-07T00:31:15.947Z,-0.46
2022-12-07T00:32:16.989Z,-0.49
2022-12-07T00:33:17.367Z,-0.46
2022-12-07T00:34:18.251Z,-0.47
2022-12-07T00:35:19.133Z,-0.44
2022-12-07T00:36:26.069Z,-0.46
2022-12-07T00:37:21.783Z,-0.47
2022-12-07T00:38:21.709Z,-0.47
2022-12-07T00:39:22.564Z,-0.47
2022-12-07T00:40:23.449Z,-0.49
2022-12-07T00:41:24.336Z,-0.47
2022-12-07T00:42:25.216Z,-0.49
2022-12-07T00:43:26.128Z,-0.49
2022-12-07T00:44:27.027Z,-0.49
2022-12-07T00:45:27.923Z,-0.47
2022-12-07T00:46:28.976Z,-0.49
2022-12-07T00:47:29.374Z,-0.47
2022-12-07T00:48:30.256Z,-0.46
2022-12-07T00:49:31.138Z,-0.46
2022-12-07T00:50:32.053Z,-0.44
2022-12-07T00:51:32.913Z,-0.46
2022-12-07T00:52:33.791Z,-0.44
2022-12-07T00:53:40.907Z,-0.44
2022-12-07T00:54:36.452Z,-0.43
2022-12-07T00:55:36.340Z,-0.42
2022-12-07T00:56:37.223Z,-0.43
2022-12-07T00:57:38.145Z,-0.42
2022-12-07T00:58:39.028Z,-0.43
2022-12-07T00:59:39.906Z,-0.44
2022-12-07T01:00:40.771Z,-0.43
2022-12-07T01:01:41.744Z,-0.43
2022-12-07T01:02:42.598Z,-0.46
2022-12-07T01:03:43.640Z,-0.43
2022-12-07T01:04:43.976Z,-0.43
2022-12-07T01:05:44.858Z,-0.43
2022-12-07T01:06:45.741Z,-0.44
2022-12-07T01:07:46.735Z,-0.43
2022-12-07T01:08:47.568Z,-0.42
2022-12-07T01:09:48.485Z,-0.43
2022-12-07T01:10:49.334Z,-0.44
2022-12-07T01:11:50.220Z,-0.43
2022-12-07T01:12:51.098Z,-0.46
2022-12-07T01:13:52.002Z,-0.46
2022-12-07T01:14:52.865Z,-0.44
2022-12-07T01:15:53.776Z,-0.44
2022-12-07T01:16:54.693Z,-0.46
2022-12-07T01:17:55.526Z,-0.44
2022-12-07T01:18:56.417Z,-0.44
2022-12-07T01:19:57.293Z,-0.43
2022-12-07T01:20:58.173Z,-0.42
2022-12-07T01:21:59.095Z,-0.44
2022-12-07T01:22:59.935Z,-0.43
2022-12-07T01:24:00.828Z,-0.43
2022-12-07T01:25:01.710Z,-0.44
2022-12-07T01:26:02.633Z,-0.43
2022-12-07T01:27:03.538Z,-0.43
2022-12-07T01:28:04.442Z,-0.43
2022-12-07T01:29:05.345Z,-0.43
2022-12-07T01:30:06.200Z,-0.42
2022-12-07T01:31:07.151Z,-0.43
2022-12-07T01:32:07.977Z,-0.44
2022-12-07T01:33:08.858Z,-0.42
2022-12-07T01:34:09.788Z,-0.43
2022-12-07T01:35:10.637Z,-0.40
2022-12-07T01:36:11.522Z,-0.42
2022-12-07T01:37:12.404Z,-0.40
2022-12-07T01:38:13.286Z,-0.39
2022-12-07T01:39:14.170Z,-0.40
2022-12-07T01:40:15.092Z,-0.37
2022-12-07T01:41:15.939Z,-0.42
2022-12-07T01:42:16.837Z,-0.40
2022-12-07T01:43:17.711Z,-0.39
2022-12-07T01:44:18.646Z,-0.39
2022-12-07T01:45:19.496Z,-0.37
2022-12-07T01:46:20.465Z,-0.39
2022-12-07T01:47:21.300Z,-0.39
2022-12-07T01:48:22.175Z,-0.37
2022-12-07T01:49:23.064Z,-0.36
2022-12-07T01:50:23.950Z,-0.36
2022-12-07T01:51:24.834Z,-0.37
2022-12-07T01:52:25.715Z,-0.37
2022-12-07T01:53:26.643Z,-0.36
2022-12-07T01:54:27.496Z,-0.42
2022-12-07T01:55:28.380Z,-0.40
2022-12-07T01:56:29.255Z,-0.40
2022-12-07T01:57:30.135Z,-0.37
2022-12-07T01:58:31.020Z,-0.37
2022-12-07T01:59:31.930Z,-0.40
2022-12-07T02:00:32.830Z,-0.39
2022-12-07T02:01:33.723Z,-0.39
2022-12-07T02:02:34.577Z,-0.39
2022-12-07T02:03:35.464Z,-0.39
2022-12-07T02:04:36.355Z,-0.39
2022-12-07T02:05:37.239Z,-0.37
2022-12-07T02:06:38.113Z,-0.36
2022-12-07T02:07:39.090Z,-0.37
2022-12-07T02:08:39.989Z,-0.34
2022-12-07T02:09:40.855Z,-0.37
2022-12-07T02:10:41.751Z,-0.36
2022-12-07T02:11:42.631Z,-0.33
2022-12-07T02:12:43.491Z,-0.33
2022-12-07T02:13:44.373Z,-0.31
2022-12-07T02:14:45.287Z,-0.31
2022-12-07T02:15:46.243Z,-0.29
2022-12-07T02:16:47.074Z,-0.29
2022-12-07T02:17:47.957Z,-0.31
2022-12-07T02:18:48.831Z,-0.29
2022-12-07T02:19:49.728Z,-0.29
2022-12-07T02:20:50.601Z,-0.29
2022-12-07T02:21:51.517Z,-0.28
2022-12-07T02:22:52.381Z,-0.29
2022-12-07T02:23:53.267Z,-0.33
2022-12-07T02:24:54.158Z,-0.33
2022-12-07T02:25:55.043Z,-0.33
2022-12-07T02:26:55.930Z,-0.34
2022-12-07T02:27:56.810Z,-0.34
2022-12-07T02:28:57.703Z,-0.36
2022-12-07T02:29:58.776Z,-0.34
2022-12-07T02:30:59.240Z,-0.36
2022-12-07T02:32:00.080Z,-0.36
2022-12-07T02:33:00.985Z,-0.33
2022-12-07T02:34:01.867Z,-0.36
2022-12-07T02:35:02.769Z,-0.39
2022-12-07T02:36:03.687Z,-0.36
2022-12-07T02:37:04.547Z,-0.37
2022-12-07T02:38:05.431Z,-0.37
2022-12-07T02:39:06.304Z,-0.34
2022-12-07T02:40:07.195Z,-0.34
2022-12-07T02:41:08.074Z,-0.36
2022-12-07T02:42:08.951Z,-0.36
2022-12-07T02:43:09.828Z,-0.34
2022-12-07T02:44:10.710Z,-0.31
2022-12-07T02:45:11.615Z,-0.31
2022-12-07T02:46:12.524Z,-0.33
2022-12-07T02:47:13.478Z,-0.29
2022-12-07T02:48:14.331Z,-0.31
2022-12-07T02:49:15.203Z,-0.29
2022-12-07T02:50:16.105Z,-0.28
2022-12-07T02:51:16.989Z,-0.29
2022-12-07T02:52:17.872Z,-0.29
2022-12-07T02:53:18.754Z,-0.28
2022-12-07T02:54:19.702Z,-0.26
2022-12-07T02:55:20.541Z,-0.26
2022-12-07T02:56:21.424Z,-0.25
2022-12-07T02:57:22.307Z,-0.26
2022-12-07T02:58:23.193Z,-0.26
2022-12-07T02:59:24.074Z,-0.25
2022-12-07T03:00:25.009Z,-0.25
2022-12-07T03:01:25.904Z,-0.25
2022-12-07T03:02:26.919Z,-0.25
2022-12-07T03:03:27.755Z,-0.23
2022-12-07T03:04:28.633Z,-0.25
2022-12-07T03:05:29.516Z,-0.23
2022-12-07T03:06:30.444Z,-0.23
2022-12-07T03:07:31.290Z,-0.22
2022-12-07T03:08:32.171Z,-0.22
2022-12-07T03:09:33.056Z,-0.25
2022-12-07T03:10:33.968Z,-0.21
2022-12-07T03:11:34.845Z,-0.22
2022-12-07T03:12:35.794Z,-0.21
2022-12-07T03:13:36.627Z,-0.22
2022-12-07T03:14:37.514Z,-0.22
2022-12-07T03:15:38.450Z,-0.22
2022-12-07T03:16:39.297Z,-0.23
2022-12-07T03:17:40.182Z,-0.22
2022-12-07T03:18:41.099Z,-0.22
2022-12-07T03:19:41.954Z,-0.21
2022-12-07T03:20:42.864Z,-0.22
2022-12-07T03:21:43.769Z,-0.21
2022-12-07T03:22:44.656Z,-0.19
2022-12-07T03:23:45.537Z,-0.21
2022-12-07T03:24:46.471Z,-0.18
2022-12-07T03:25:47.339Z,-0.22
2022-12-07T03:26:48.230Z,-0.21
2022-12-07T03:27:49.113Z,-0.21
2022-12-07T03:28:49.994Z,-0.19
2022-12-07T03:29:50.901Z,-0.19
2022-12-07T03:30:51.922Z,-0.19
2022-12-07T03:31:52.345Z,-0.19
2022-12-07T03:32:53.195Z,-0.19
2022-12-07T03:33:54.082Z,-0.18
2022-12-07T03:34:54.962Z,-0.16
2022-12-07T03:35:55.856Z,-0.16
2022-12-07T03:36:56.778Z,-0.18
2022-12-07T03:37:57.626Z,-0.18
2022-12-07T03:38:58.509Z,-0.16
2022-12-07T03:39:59.668Z,-0.19
2022-12-07T03:41:00.132Z,-0.18
2022-12-07T03:42:01.020Z,-0.18
2022-12-07T03:43:01.907Z,-0.18
2022-12-07T03:44:02.825Z,-0.16
2022-12-07T03:45:03.686Z,-0.16
2022-12-07T03:46:04.625Z,-0.16
2022-12-07T03:47:05.454Z,-0.18
2022-12-07T03:48:06.333Z,-0.16
2022-12-07T03:49:07.214Z,-0.15
2022-12-07T03:50:08.151Z,-0.14
2022-12-07T03:51:09.017Z,-0.19
2022-12-07T03:52:09.899Z,-0.16
2022-12-07T03:53:10.783Z,-0.16
2022-12-07T03:54:11.667Z,-0.18
2022-12-07T03:55:12.553Z,-0.18
2022-12-07T03:56:13.497Z,-0.21
2022-12-07T03:57:14.340Z,-0.18
2022-12-07T03:58:15.228Z,-0.21
2022-12-07T03:59:16.106Z,-0.21
2022-12-07T04:00:16.995Z,-0.19
2022-12-07T04:01:17.969Z,-0.19
2022-12-07T04:02:18.843Z,-0.19
2022-12-07T04:03:19.752Z,-0.18
2022-12-07T04:04:20.656Z,-0.18
2022-12-07T04:05:21.544Z,-0.18
2022-12-07T04:06:22.454Z,-0.18
2022-12-07T04:07:23.335Z,-0.16
2022-12-07T04:08:24.298Z,-0.18
2022-12-07T04:09:25.151Z,-0.16
2022-12-07T04:10:26.033Z,-0.18
2022-12-07T04:11:26.946Z,-0.18
2022-12-07T04:12:27.828Z,-0.16
2022-12-07T04:13:28.712Z,-0.16
2022-12-07T04:14:29.637Z,-0.16
2022-12-07T04:15:30.483Z,-0.16
2022-12-07T04:16:31.485Z,-0.18
2022-12-07T04:17:31.857Z,-0.15
2022-12-07T04:18:32.731Z,-0.16
2022-12-07T04:19:33.611Z,-0.15
2022-12-07T04:20:34.536Z,-0.15
2022-12-07T04:21:35.410Z,-0.16
2022-12-07T04:22:36.295Z,-0.15
2022-12-07T04:23:37.177Z,-0.15
2022-12-07T04:24:38.050Z,-0.15
2022-12-07T04:25:38.955Z,-0.16
2022-12-07T04:26:39.919Z,-0.15
2022-12-07T04:27:40.769Z,-0.16
2022-12-07T04:28:41.663Z,-0.15
2022-12-07T04:29:42.562Z,-0.18
2022-12-07T04:30:43.468Z,-0.16
2022-12-07T04:31:44.485Z,-0.16
2022-12-07T04:32:44.918Z,-0.15
2022-12-07T04:33:45.884Z,-0.18
2022-12-07T04:34:46.273Z,-0.18
2022-12-07T04:35:47.158Z,-0.21
2022-12-07T04:36:48.054Z,-0.19
2022-12-07T04:37:48.932Z,-0.21
2022-12-07T04:38:49.856Z,-0.19
2022-12-07T04:39:50.707Z,-0.21
2022-12-07T04:40:51.586Z,-0.21
2022-12-07T04:41:52.483Z,-0.19
2022-12-07T04:42:53.366Z,-0.22
2022-12-07T04:43:54.255Z,-0.23
2022-12-07T04:44:55.185Z,-0.25
2022-12-07T04:45:56.035Z,-0.26
2022-12-07T04:46:57.017Z,-0.25
2022-12-07T04:47:57.880Z,-0.25
2022-12-07T04:48:58.769Z,-0.25
2022-12-07T04:50:00.108Z,-0.23
2022-12-07T04:51:00.176Z,-0.25
2022-12-07T04:52:01.100Z,-0.25
2022-12-07T04:53:01.967Z,-0.26
2022-12-07T04:54:02.860Z,-0.26
2022-12-07T04:55:03.736Z,-0.28
2022-12-07T04:56:04.630Z,-0.28
2022-12-07T04:57:05.535Z,-0.28
2022-12-07T04:58:06.486Z,-0.29
2022-12-07T04:59:07.340Z,-0.28
2022-12-07T05:00:08.243Z,-0.28
2022-12-07T05:01:09.185Z,-0.28
2022-12-07T05:02:10.138Z,-0.28
2022-12-07T05:03:11.014Z,-0.26
2022-12-07T05:04:11.938Z,-0.28
2022-12-07T05:05:12.793Z,-0.26
2022-12-07T05:06:14.011Z,-0.29
2022-12-07T05:07:14.355Z,-0.28
2022-12-07T05:08:15.283Z,-0.26
2022-12-07T05:09:16.138Z,-0.28
2022-12-07T05:10:17.052Z,-0.26
2022-12-07T05:11:17.899Z,-0.26
2022-12-07T05:12:18.791Z,-0.28
2022-12-07T05:13:19.674Z,-0.25
2022-12-07T05:14:20.559Z,-0.26
2022-12-07T05:15:21.441Z,-0.25
2022-12-07T05:16:22.538Z,-0.26
2022-12-07T05:17:22.957Z,-0.22
2022-12-07T05:18:23.871Z,-0.25
2022-12-07T05:19:24.705Z,-0.23
2022-12-07T05:20:25.591Z,-0.22
2022-12-07T05:21:26.495Z,-0.23
2022-12-07T05:22:27.403Z,-0.23
2022-12-07T05:23:28.299Z,-0.25
2022-12-07T05:24:29.254Z,-0.25
2022-12-07T05:25:30.097Z,-0.25
2022-12-07T05:26:30.977Z,-0.23
2022-12-07T05:27:31.880Z,-0.26
2022-12-07T05:28:32.777Z,-0.25
2022-12-07T05:29:33.656Z,-0.26
2022-12-07T05:30:34.539Z,-0.28
2022-12-07T05:31:35.632Z,-0.28
2022-12-07T05:32:36.043Z,-0.28
2022-12-07T05:33:36.907Z,-0.28
2022-12-07T05:34:37.780Z,-0.29
2022-12-07T05:35:38.664Z,-0.29
2022-12-07T05:36:39.540Z,-0.31
2022-12-07T05:37:40.482Z,-0.31
2022-12-07T05:38:41.336Z,-0.31
2022-12-07T05:39:42.221Z,-0.33
2022-12-07T05:40:43.108Z,-0.33
2022-12-07T05:41:43.993Z,-0.29
2022-12-07T05:42:44.883Z,-0.33
2022-12-07T05:43:45.945Z,-0.31
2022-12-07T05:44:46.348Z,-0.33
2022-12-07T05:45:47.229Z,-0.31
2022-12-07T05:46:48.085Z,-0.31
2022-12-07T05:47:49.001Z,-0.31
2022-12-07T05:48:49.866Z,-0.33
2022-12-07T05:49:50.748Z,-0.31
2022-12-07T05:50:51.686Z,-0.29
2022-12-07T05:51:52.525Z,-0.29
2022-12-07T05:52:53.426Z,-0.29
2022-12-07T05:53:54.305Z,-0.31
2022-12-07T05:54:55.193Z,-0.28
2022-12-07T05:55:56.074Z,-0.28
2022-12-07T05:56:57.027Z,-0.29
2022-12-07T05:57:57.876Z,-0.28
2022-12-07T05:58:58.761Z,-0.29
2022-12-07T06:00:00.067Z,-0.28
2022-12-07T06:01:00.177Z,-0.26
2022-12-07T06:02:01.183Z,-0.28
2022-12-07T06:03:01.775Z,-0.26
2022-12-07T06:04:02.206Z,-0.25
2022-12-07T06:05:03.038Z,-0.26
2022-12-07T06:06:03.952Z,-0.25
2022-12-07T06:07:04.807Z,-0.23
2022-12-07T06:08:06.252Z,-0.23
2022-12-07T06:09:06.211Z,-0.25
2022-12-07T06:10:07.144Z,-0.23
2022-12-07T06:11:08.000Z,-0.23
2022-12-07T06:12:08.879Z,-0.19
2022-12-07T06:13:09.771Z,-0.19
2022-12-07T06:14:10.654Z,-0.22
2022-12-07T06:15:11.537Z,-0.19
2022-12-07T06:16:12.479Z,-0.16
2022-12-07T06:17:13.384Z,-0.18
2022-12-07T06:18:14.263Z,-0.16
2022-12-07T06:19:15.135Z,-0.11
2022-12-07T06:20:16.038Z,-0.14
2022-12-07T06:21:16.930Z,-0.14
2022-12-07T06:22:17.820Z,-0.15
2022-12-07T06:23:18.800Z,-0.11
2022-12-07T06:24:19.651Z,-0.11
2022-12-07T06:25:20.524Z,-0.11
2022-12-07T06:26:21.426Z,-0.11
2022-12-07T06:27:22.300Z,-0.10
2022-12-07T06:28:23.195Z,-0.10
2022-12-07T06:29:24.137Z,-0.11
2022-12-07T06:30:24.975Z,-0.14
2022-12-07T06:31:25.923Z,-0.10
2022-12-07T06:32:26.751Z,-0.11
2022-12-07T06:33:27.664Z,-0.14
2022-12-07T06:34:28.522Z,-0.11
2022-12-07T06:35:29.352Z,-0.14
2022-12-07T06:36:30.282Z,-0.14
2022-12-07T06:37:31.121Z,-0.10
2022-12-07T06:38:31.985Z,-0.11
2022-12-07T06:39:32.854Z,-0.11
2022-12-07T06:40:33.646Z,-0.14
2022-12-07T06:41:34.479Z,-0.11
2022-12-07T06:42:35.305Z,-0.14
2022-12-07T06:43:36.143Z,-0.14
2022-12-07T06:44:37.044Z,-0.11
2022-12-07T06:45:37.899Z,-0.14
2022-12-07T06:46:38.674Z,-0.11
2022-12-07T06:47:41.641Z,-0.14
2022-12-07T06:48:40.231Z,-0.11
2022-12-07T06:49:41.095Z,-0.14
2022-12-07T06:50:42.022Z,-0.11
2022-12-07T06:51:42.867Z,-0.11
2022-12-07T06:52:43.747Z,-0.15
2022-12-07T06:53:44.593Z,-0.11
2022-12-07T06:54:45.421Z,-0.14
2022-12-07T06:55:46.257Z,-0.11
2022-12-07T06:56:47.154Z,-0.08
2022-12-07T06:57:47.943Z,-0.11
2022-12-07T06:58:48.772Z,-0.14
2022-12-07T06:59:49.613Z,-0.10
2022-12-07T07:00:50.480Z,-0.10
2022-12-07T07:01:51.274Z,-0.11
2022-12-07T07:02:52.167Z,-0.14
2022-12-07T07:03:52.984Z,-0.11
2022-12-07T07:04:53.790Z,-0.11
2022-12-07T07:05:54.611Z,-0.14
2022-12-07T07:07:00.030Z,-0.11
2022-12-07T07:08:21.346Z,-0.14
2022-12-07T07:08:57.986Z,-0.11
2022-12-07T07:09:57.771Z,-0.11
2022-12-07T07:10:58.600Z,-0.10
2022-12-07T07:11:59.431Z,-0.11
2022-12-07T07:13:00.261Z,-0.11
2022-12-07T07:14:01.123Z,-0.10
2022-12-07T07:15:01.961Z,-0.08
2022-12-07T07:16:02.770Z,-0.10
2022-12-07T07:17:03.678Z,-0.08
2022-12-07T07:18:07.764Z,-0.08
2022-12-07T07:19:05.405Z,-0.08
2022-12-07T07:20:06.217Z,-0.10
2022-12-07T07:21:07.040Z,-0.10
2022-12-07T07:22:07.858Z,-0.10
2022-12-07T07:23:08.688Z,-0.08
2022-12-07T07:24:09.517Z,-0.10
2022-12-07T07:25:10.351Z,-0.10
2022-12-07T07:26:11.188Z,-0.10
2022-12-07T07:27:12.005Z,-0.10
2022-12-07T07:28:12.847Z,-0.10
2022-12-07T07:29:13.685Z,-0.10
2022-12-07T07:30:14.516Z,-0.11
2022-12-07T07:31:15.454Z,-0.10
2022-12-07T07:32:16.242Z,-0.10
2022-12-07T07:33:17.065Z,-0.11
2022-12-07T07:34:17.939Z,-0.14
2022-12-07T07:35:18.748Z,-0.11
2022-12-07T07:36:19.574Z,-0.08
2022-12-07T07:37:22.194Z,-0.10
2022-12-07T07:38:21.085Z,-0.10
2022-12-07T07:39:21.913Z,-0.10
2022-12-07T07:40:22.733Z,-0.10
2022-12-07T07:41:23.564Z,-0.07
2022-12-07T07:42:24.383Z,-0.07
2022-12-07T07:43:25.212Z,-0.07
2022-12-07T07:44:28.980Z,-0.07
2022-12-07T07:45:27.778Z,-0.07
2022-12-07T07:46:27.637Z,-0.07
2022-12-07T07:47:28.436Z,-0.04
2022-12-07T07:48:29.257Z,-0.05
2022-12-07T07:49:30.120Z,-0.05
2022-12-07T07:50:30.928Z,-0.04
2022-12-07T07:51:31.749Z,-0.05
2022-12-07T07:52:32.580Z,-0.04
2022-12-07T07:53:33.409Z,-0.03
2022-12-07T07:54:34.262Z,-0.04
2022-12-07T07:55:35.088Z,-0.04
2022-12-07T07:56:35.917Z,-0.04
2022-12-07T07:57:36.747Z,-0.03
2022-12-07T07:58:37.578Z,-0.04
2022-12-07T07:59:38.408Z,-0.04
2022-12-07T08:00:39.230Z,-0.03
2022-12-07T08:01:40.102Z,-0.01
2022-12-07T08:02:40.923Z,-0.01
2022-12-07T08:03:41.777Z,0.00
2022-12-07T08:04:42.705Z,-0.03
2022-12-07T08:05:43.472Z,-0.03
2022-12-07T08:06:44.296Z,-0.01
2022-12-07T08:07:45.267Z,-0.01
2022-12-07T08:08:45.628Z,0.00
2022-12-07T08:09:46.480Z,-0.03
2022-12-07T08:10:47.295Z,-0.01
2022-12-07T08:11:48.120Z,-0.01
2022-12-07T08:12:48.941Z,0.00
2022-12-07T08:13:49.769Z,0.02
2022-12-07T08:14:50.596Z,0.02
2022-12-07T08:15:51.498Z,0.00
2022-12-07T08:16:52.288Z,0.00
2022-12-07T08:17:53.118Z,0.02
2022-12-07T08:18:53.938Z,0.02
2022-12-07T08:19:54.798Z,0.00
2022-12-07T08:20:55.606Z,0.02
2022-12-07T08:21:56.446Z,0.02
2022-12-07T08:22:57.266Z,0.03
2022-12-07T08:23:58.095Z,0.02
2022-12-07T08:24:58.935Z,0.03
2022-12-07T08:25:59.766Z,0.03
2022-12-07T08:27:00.585Z,0.03
2022-12-07T08:28:01.425Z,0.03
2022-12-07T08:29:02.290Z,0.08
2022-12-07T08:30:03.422Z,0.04
2022-12-07T08:31:03.962Z,0.08
2022-12-07T08:32:09.446Z,0.04
2022-12-07T08:33:06.460Z,0.07
2022-12-07T08:34:06.299Z,0.04
2022-12-07T08:35:07.145Z,0.04
2022-12-07T08:36:07.957Z,0.07
2022-12-07T08:37:08.788Z,0.08
2022-12-07T08:38:09.616Z,0.10
2022-12-07T08:40:12.195Z,0.07
2022-12-07T08:41:12.014Z,0.08
2022-12-07T08:42:12.842Z,0.08
2022-12-07T08:43:13.663Z,0.08
2022-12-07T08:44:14.491Z,0.08
2022-12-07T08:45:15.332Z,0.08
2022-12-07T08:46:16.217Z,0.04
2022-12-07T08:47:17.066Z,0.07
2022-12-07T08:48:17.897Z,0.10
2022-12-07T08:49:18.722Z,0.07
2022-12-07T08:50:19.576Z,0.08
2022-12-07T08:51:20.387Z,0.08
2022-12-07T08:52:21.220Z,0.08
2022-12-07T08:53:22.047Z,0.08
2022-12-07T08:54:22.901Z,0.08
2022-12-07T08:55:23.721Z,0.08
2022-12-07T08:56:24.552Z,0.10
2022-12-07T08:57:25.410Z,0.10
2022-12-07T08:58:26.225Z,0.11
2022-12-07T08:59:27.106Z,0.11
2022-12-07T09:00:27.923Z,0.11
2022-12-07T09:01:28.780Z,0.14
2022-12-07T09:02:29.590Z,0.14
2022-12-07T09:03:30.422Z,0.15
2022-12-07T09:04:31.293Z,0.18
2022-12-07T09:05:32.152Z,0.17
2022-12-07T09:06:33.060Z,0.21
2022-12-07T09:07:33.985Z,0.21
2022-12-07T09:08:34.819Z,0.23
2022-12-07T09:09:35.655Z,0.24
2022-12-07T09:10:36.490Z,0.24
2022-12-07T09:11:37.336Z,0.26
2022-12-07T09:12:38.143Z,0.26
2022-12-07T09:13:38.969Z,0.29
2022-12-07T09:14:39.810Z,0.32
2022-12-07T09:15:40.786Z,0.31
2022-12-07T09:16:41.680Z,0.32
2022-12-07T09:17:42.459Z,0.32
2022-12-07T09:18:43.287Z,0.32
2022-12-07T09:19:44.128Z,0.33
2022-12-07T09:20:44.965Z,0.32
2022-12-07T09:21:45.767Z,0.33
2022-12-07T09:22:46.597Z,0.33
2022-12-07T09:23:47.421Z,0.35
2022-12-07T09:24:48.258Z,0.38
2022-12-07T09:25:49.123Z,0.38
2022-12-07T09:26:49.932Z,0.39
2022-12-07T09:27:50.753Z,0.38
2022-12-07T09:28:51.583Z,0.39
2022-12-07T09:29:52.403Z,0.36
2022-12-07T09:31:22.354Z,0.41
2022-12-07T09:31:55.064Z,0.41
2022-12-07T09:32:54.883Z,0.44
2022-12-07T09:33:55.766Z,0.42
2022-12-07T09:34:56.608Z,0.46
2022-12-07T09:35:57.471Z,0.42
2022-12-07T09:36:58.278Z,0.47
2022-12-07T09:37:59.130Z,0.46
2022-12-07T09:38:59.951Z,0.46
2022-12-07T09:40:00.780Z,0.47
2022-12-07T09:41:01.619Z,0.46
2022-12-07T09:42:02.439Z,0.47
2022-12-07T09:43:03.454Z,0.47
2022-12-07T09:44:03.832Z,0.47
2022-12-07T09:45:04.639Z,0.49
2022-12-07T09:46:05.552Z,0.49
2022-12-07T09:47:06.328Z,0.49
2022-12-07T09:48:07.158Z,0.50
2022-12-07T09:49:08.032Z,0.49
2022-12-07T09:50:08.829Z,0.50
2022-12-07T09:51:09.702Z,0.47
2022-12-07T09:52:10.497Z,0.50
2022-12-07T09:53:11.329Z,0.51
2022-12-07T09:54:12.158Z,0.51
2022-12-07T09:55:13.000Z,0.50
2022-12-07T09:56:13.897Z,0.50
2022-12-07T09:57:14.690Z,0.51
2022-12-07T09:58:15.514Z,0.50
2022-12-07T09:59:16.333Z,0.51
2022-12-07T10:00:17.195Z,0.49
2022-12-07T10:01:18.166Z,0.50
2022-12-07T10:02:19.091Z,0.47
2022-12-07T10:03:19.884Z,0.50
2022-12-07T10:04:20.761Z,0.47
2022-12-07T10:05:24.407Z,0.50
2022-12-07T10:06:22.587Z,0.47
2022-12-07T10:07:23.395Z,0.44
2022-12-07T10:08:24.302Z,0.46
2022-12-07T10:09:25.110Z,0.44
2022-12-07T10:10:25.992Z,0.42
2022-12-07T10:11:26.831Z,0.42
2022-12-07T10:12:27.659Z,0.44
2022-12-07T10:13:28.486Z,0.42
2022-12-07T10:14:44.303Z,0.44
2022-12-07T10:15:31.027Z,0.44
2022-12-07T10:16:30.939Z,0.47
2022-12-07T10:17:31.810Z,0.46
2022-12-07T10:18:32.207Z,0.47
2022-12-07T10:19:33.036Z,0.47
2022-12-07T10:20:33.865Z,0.47
2022-12-07T10:21:34.722Z,0.49
2022-12-07T10:22:35.530Z,0.49
2022-12-07T10:23:36.353Z,0.50
2022-12-07T10:24:37.182Z,0.46
2022-12-07T10:25:38.011Z,0.49
2022-12-07T10:26:38.850Z,0.47
2022-12-07T10:27:39.676Z,0.47
2022-12-07T10:28:42.306Z,0.50
2022-12-07T10:29:41.323Z,0.49
2022-12-07T10:30:42.151Z,0.49
2022-12-07T10:31:43.045Z,0.51
2022-12-07T10:32:43.870Z,0.49
2022-12-07T10:33:44.699Z,0.47
2022-12-07T10:34:51.983Z,0.50
2022-12-07T10:35:47.235Z,0.49
2022-12-07T10:36:47.093Z,0.50
2022-12-07T10:37:47.894Z,0.53
2022-12-07T10:38:48.720Z,0.51
2022-12-07T10:39:49.571Z,0.50
2022-12-07T10:40:50.377Z,0.50
2022-12-07T10:41:51.206Z,0.50
2022-12-07T10:42:52.036Z,0.53
2022-12-07T10:43:52.860Z,0.50
2022-12-07T10:44:53.749Z,0.51
2022-12-07T10:46:03.676Z,0.49
2022-12-07T10:46:56.406Z,0.50
2022-12-07T10:47:56.194Z,0.50
2022-12-07T10:48:57.024Z,0.50
2022-12-07T10:49:57.869Z,0.51
2022-12-07T10:50:58.672Z,0.50
2022-12-07T10:51:59.562Z,0.50
2022-12-07T10:53:00.347Z,0.49
2022-12-07T10:54:01.169Z,0.49
2022-12-07T10:55:02.338Z,0.53
2022-12-07T10:56:02.775Z,0.47
2022-12-07T10:57:03.615Z,0.47
2022-12-07T10:58:04.460Z,0.47
2022-12-07T10:59:05.287Z,0.46
2022-12-07T11:00:06.117Z,0.46
2022-12-07T11:01:06.995Z,0.46
2022-12-07T11:02:07.875Z,0.47
2022-12-07T11:03:08.676Z,0.47
2022-12-07T11:04:09.505Z,0.47
2022-12-07T11:05:10.328Z,0.47
2022-12-07T11:06:11.148Z,0.47
2022-12-07T11:07:12.005Z,0.47
2022-12-07T11:08:12.863Z,0.46
2022-12-07T11:09:13.664Z,0.47
2022-12-07T11:10:14.528Z,0.49
2022-12-07T11:11:15.339Z,0.47
2022-12-07T11:12:16.175Z,0.47
2022-12-07T11:13:17.008Z,0.47
2022-12-07T11:14:17.828Z,0.44
2022-12-07T11:15:18.662Z,0.46
2022-12-07T11:16:19.580Z,0.44
2022-12-07T11:17:20.365Z,0.44
2022-12-07T11:18:21.197Z,0.42
2022-12-07T11:19:26.662Z,0.42
2022-12-07T11:20:23.740Z,0.44
2022-12-07T11:21:23.570Z,0.42
2022-12-07T11:22:24.521Z,0.41
2022-12-07T11:23:25.286Z,0.44
2022-12-07T11:24:26.128Z,0.46
2022-12-07T11:26:28.658Z,0.42
2022-12-07T11:27:28.510Z,0.42
2022-12-07T11:28:29.332Z,0.42
2022-12-07T11:29:30.170Z,0.41
2022-12-07T11:30:31.009Z,0.41
2022-12-07T11:31:31.917Z,0.42
2022-12-07T11:32:32.722Z,0.41
2022-12-07T11:33:33.549Z,0.41
2022-12-07T11:34:34.369Z,0.41
2022-12-07T11:35:35.198Z,0.41
2022-12-07T11:36:36.031Z,0.38
2022-12-07T11:38:37.605Z,0.36
2022-12-07T11:39:38.433Z,0.36
2022-12-07T11:40:39.260Z,0.38
2022-12-07T11:41:40.090Z,0.38
2022-12-07T11:42:40.937Z,0.38
2022-12-07T11:43:41.758Z,0.39
2022-12-07T11:44:42.580Z,0.38
2022-12-07T11:45:43.414Z,0.39
2022-12-07T11:46:44.316Z,0.38
2022-12-07T11:47:45.125Z,0.41
2022-12-07T11:48:45.969Z,0.39
2022-12-07T11:49:46.788Z,0.42
2022-12-07T11:50:47.607Z,0.38
2022-12-07T11:51:48.438Z,0.41
2022-12-07T11:52:49.299Z,0.42
2022-12-07T11:53:50.095Z,0.42
2022-12-07T11:54:50.936Z,0.46
2022-12-07T11:55:51.757Z,0.47
2022-12-07T11:56:52.586Z,0.46
2022-12-07T11:57:53.423Z,0.46
2022-12-07T11:58:54.244Z,0.47
2022-12-07T11:59:55.075Z,0.46
2022-12-07T12:00:55.902Z,0.47
2022-12-07T12:01:56.791Z,0.49
2022-12-07T12:02:57.660Z,0.51
2022-12-07T12:03:58.440Z,0.49
2022-12-07T12:04:59.262Z,0.50
2022-12-07T12:06:00.089Z,0.49
2022-12-07T12:10:04.311Z,0.47
2022-12-07T12:11:03.737Z,0.49
2022-12-07T12:14:36.861Z,0.49
2022-12-07T12:15:07.741Z,0.51
2022-12-07T12:16:07.613Z,0.50
2022-12-07T12:17:08.401Z,0.51
2022-12-07T12:18:09.240Z,0.53
2022-12-07T12:19:10.075Z,0.51
2022-12-07T12:20:10.896Z,0.51
2022-12-07T12:21:11.716Z,0.53
2022-12-07T12:22:12.545Z,0.57
2022-12-07T12:23:13.410Z,0.57
2022-12-07T12:24:14.301Z,0.55
2022-12-07T12:25:15.079Z,0.57
2022-12-07T12:26:15.974Z,0.58
2022-12-07T12:27:16.745Z,0.58
2022-12-07T12:28:17.604Z,0.57
2022-12-07T12:29:18.431Z,0.57
2022-12-07T12:30:19.260Z,0.60
2022-12-07T12:31:20.156Z,0.60
2022-12-07T12:32:21.113Z,0.58
2022-12-07T12:33:21.929Z,0.60
2022-12-07T12:34:22.760Z,0.60
2022-12-07T12:35:23.590Z,0.61
2022-12-07T12:36:24.489Z,0.62
2022-12-07T12:37:25.309Z,0.60
2022-12-07T12:38:26.149Z,0.61
2022-12-07T12:39:26.958Z,0.60
2022-12-07T12:40:27.788Z,0.61
2022-12-07T12:41:28.618Z,0.62
2022-12-07T12:42:29.447Z,0.62
2022-12-07T12:43:30.298Z,0.65
2022-12-07T12:44:31.120Z,0.65
2022-12-07T12:45:32.027Z,0.65
2022-12-07T12:46:32.887Z,0.65
2022-12-07T12:47:33.714Z,0.65
2022-12-07T12:48:34.553Z,0.65
2022-12-07T12:49:35.381Z,0.61
2022-12-07T12:50:36.207Z,0.61
2022-12-07T12:51:37.034Z,0.62
2022-12-07T12:52:37.894Z,0.60
2022-12-07T12:53:38.777Z,0.57
2022-12-07T12:54:39.582Z,0.61
2022-12-07T12:55:40.413Z,0.61
2022-12-07T12:56:41.240Z,0.62
2022-12-07T12:57:42.053Z,0.61
2022-12-07T12:58:42.889Z,0.61
2022-12-07T12:59:43.721Z,0.61
2022-12-07T13:00:44.549Z,0.61
2022-12-07T13:01:45.495Z,0.61
2022-12-07T13:02:46.409Z,0.62
2022-12-07T13:03:47.264Z,0.66
2022-12-07T13:04:48.140Z,0.65
2022-12-07T13:05:48.925Z,0.66
2022-12-07T13:06:49.754Z,0.65
2022-12-07T13:07:50.654Z,0.66
2022-12-07T13:08:51.526Z,0.66
2022-12-07T13:09:52.324Z,0.68
2022-12-07T13:10:53.152Z,0.68
2022-12-07T13:11:53.973Z,0.68
2022-12-07T13:12:54.803Z,0.69
2022-12-07T13:13:55.645Z,0.68
2022-12-07T13:14:56.478Z,0.69
2022-12-07T13:15:57.309Z,0.70
2022-12-07T13:16:58.225Z,0.72
2022-12-07T13:17:59.019Z,0.72
2022-12-07T13:18:59.837Z,0.70
2022-12-07T13:20:00.674Z,0.72
2022-12-07T13:21:01.499Z,0.73
2022-12-07T13:22:02.314Z,0.73